sensor_id;sensor_type;location;lat;lon;timestamp;temperature;humidity
49855;DHT22;35752;52.164;21.244;2022-09-09T00:23:45;12.20;99.90
49855;DHT22;35752;52.164;21.244;2022-09-09T00:29:05;12.10;99.90
49855;DHT22;35752;52.164;21.244;2022-09-09T00:31:35;12.10;99.90
49855;DHT22;35752;52.164;21.244;2022-09-09T00:34:38;12.10;99.90
49855;DHT22;35752;52.164;21.244;2022-09-09T00:36:57;12.00;99.90
49855;DHT22;35752;52.164;21.244;2022-09-09T00:39:42;12.00;99.90
49855;DHT22;35752;52.164;21.244;2022-09-09T00:42:42;12.00;99.90
49855;DHT22;35752;52.164;21.244;2022-09-09T00:45:37;12.00;99.90
49855;DHT22;35752;52.164;21.244;2022-09-09T00:48:10;11.90;99.90
49855;DHT22;35752;52.164;21.244;2022-09-09T00:58:16;12.00;99.90
49855;DHT22;35752;52.164;21.244;2022-09-09T01:00:45;11.90;99.90
49855;DHT22;35752;52.164;21.244;2022-09-09T01:03:37;11.90;99.90
49855;DHT22;35752;52.164;21.244;2022-09-09T01:06:27;11.90;99.90
49855;DHT22;35752;52.164;21.244;2022-09-09T01:09:21;11.90;99.90
49855;DHT22;35752;52.164;21.244;2022-09-09T01:12:16;11.90;99.90
49855;DHT22;35752;52.164;21.244;2022-09-09T01:14:47;11.90;99.90
49855;DHT22;35752;52.164;21.244;2022-09-09T01:17:33;11.80;99.90
49855;DHT22;35752;52.164;21.244;2022-09-09T01:20:24;11.90;99.90
49855;DHT22;35752;52.164;21.244;2022-09-09T01:28:28;11.90;99.90
49855;DHT22;35752;52.164;21.244;2022-09-09T01:30:56;11.80;99.90
49855;DHT22;35752;52.164;21.244;2022-09-09T01:33:22;11.90;99.90
49855;DHT22;35752;52.164;21.244;2022-09-09T01:38:24;11.80;99.90
49855;DHT22;35752;52.164;21.244;2022-09-09T01:40:51;11.80;99.90
49855;DHT22;35752;52.164;21.244;2022-09-09T01:43:21;11.80;99.90
49855;DHT22;35752;52.164;21.244;2022-09-09T01:45:50;11.80;99.90
49855;DHT22;35752;52.164;21.244;2022-09-09T01:48:18;11.90;99.90
49855;DHT22;35752;52.164;21.244;2022-09-09T01:50:44;11.90;99.90
49855;DHT22;35752;52.164;21.244;2022-09-09T01:53:10;11.90;99.90
49855;DHT22;35752;52.164;21.244;2022-09-09T01:55:39;11.90;99.90
49855;DHT22;35752;52.164;21.244;2022-09-09T02:03:31;11.90;99.90
49855;DHT22;35752;52.164;21.244;2022-09-09T02:09:05;11.90;99.90
49855;DHT22;35752;52.164;21.244;2022-09-09T02:11:40;11.90;99.90
49855;DHT22;35752;52.164;21.244;2022-09-09T02:14:11;11.90;99.90
49855;DHT22;35752;52.164;21.244;2022-09-09T02:16:44;11.90;99.90
49855;DHT22;35752;52.164;21.244;2022-09-09T02:19:23;11.80;99.90
49855;DHT22;35752;52.164;21.244;2022-09-09T02:21:54;11.80;99.90
49855;DHT22;35752;52.164;21.244;2022-09-09T02:24:21;11.90;99.90
49855;DHT22;35752;52.164;21.244;2022-09-09T02:26:50;11.90;99.90
49855;DHT22;35752;52.164;21.244;2022-09-09T02:29:39;11.90;99.90
49855;DHT22;35752;52.164;21.244;2022-09-09T02:32:12;11.90;99.90
49855;DHT22;35752;52.164;21.244;2022-09-09T02:34:49;11.90;99.90
49855;DHT22;35752;52.164;21.244;2022-09-09T02:37:21;11.90;99.90
49855;DHT22;35752;52.164;21.244;2022-09-09T02:39:50;11.90;99.90
49855;DHT22;35752;52.164;21.244;2022-09-09T02:42:16;11.90;99.90
49855;DHT22;35752;52.164;21.244;2022-09-09T02:44:42;11.90;99.90
49855;DHT22;35752;52.164;21.244;2022-09-09T02:58:26;11.90;99.90
49855;DHT22;35752;52.164;21.244;2022-09-09T03:00:52;11.90;99.90
49855;DHT22;35752;52.164;21.244;2022-09-09T03:03:19;11.90;99.90
49855;DHT22;35752;52.164;21.244;2022-09-09T03:05:45;12.00;99.90
49855;DHT22;35752;52.164;21.244;2022-09-09T03:08:12;12.00;99.90
49855;DHT22;35752;52.164;21.244;2022-09-09T03:10:39;11.90;99.90
49855;DHT22;35752;52.164;21.244;2022-09-09T03:13:05;12.00;99.90
49855;DHT22;35752;52.164;21.244;2022-09-09T03:15:32;11.90;99.90
49855;DHT22;35752;52.164;21.244;2022-09-09T03:17:58;12.00;99.90
49855;DHT22;35752;52.164;21.244;2022-09-09T03:20:26;12.00;99.90
49855;DHT22;35752;52.164;21.244;2022-09-09T03:22:52;12.00;99.90
49855;DHT22;35752;52.164;21.244;2022-09-09T03:25:24;12.00;99.90
49855;DHT22;35752;52.164;21.244;2022-09-09T03:27:52;12.00;99.90
49855;DHT22;35752;52.164;21.244;2022-09-09T03:30:23;12.00;99.90
49855;DHT22;35752;52.164;21.244;2022-09-09T03:32:48;12.10;99.90
49855;DHT22;35752;52.164;21.244;2022-09-09T03:35:18;12.00;99.90
49855;DHT22;35752;52.164;21.244;2022-09-09T03:37:44;12.10;99.90
49855;DHT22;35752;52.164;21.244;2022-09-09T03:40:13;12.00;99.90
49855;DHT22;35752;52.164;21.244;2022-09-09T03:42:42;12.10;99.90
49855;DHT22;35752;52.164;21.244;2022-09-09T03:45:09;12.00;99.90
49855;DHT22;35752;52.164;21.244;2022-09-09T03:47:36;12.00;99.90
49855;DHT22;35752;52.164;21.244;2022-09-09T03:50:02;12.10;99.90
49855;DHT22;35752;52.164;21.244;2022-09-09T03:52:29;12.10;99.90
49855;DHT22;35752;52.164;21.244;2022-09-09T03:54:59;12.10;99.90
49855;DHT22;35752;52.164;21.244;2022-09-09T03:57:25;12.00;99.90
49855;DHT22;35752;52.164;21.244;2022-09-09T03:59:50;12.10;99.90
49855;DHT22;35752;52.164;21.244;2022-09-09T04:02:19;12.10;99.90
49855;DHT22;35752;52.164;21.244;2022-09-09T04:04:46;12.10;99.90
49855;DHT22;35752;52.164;21.244;2022-09-09T04:07:11;12.10;99.90
49855;DHT22;35752;52.164;21.244;2022-09-09T04:09:38;12.10;99.90
49855;DHT22;35752;52.164;21.244;2022-09-09T04:12:04;12.10;99.90
49855;DHT22;35752;52.164;21.244;2022-09-09T04:14:30;12.10;99.90
49855;DHT22;35752;52.164;21.244;2022-09-09T04:16:58;12.20;99.90
49855;DHT22;35752;52.164;21.244;2022-09-09T04:19:25;12.20;99.90
49855;DHT22;35752;52.164;21.244;2022-09-09T04:21:51;12.20;99.90
49855;DHT22;35752;52.164;21.244;2022-09-09T04:24:17;12.20;99.90
49855;DHT22;35752;52.164;21.244;2022-09-09T04:26:43;12.20;99.90
49855;DHT22;35752;52.164;21.244;2022-09-09T04:29:21;12.20;99.90
49855;DHT22;35752;52.164;21.244;2022-09-09T04:31:47;12.30;99.90
49855;DHT22;35752;52.164;21.244;2022-09-09T04:34:12;12.30;99.90
49855;DHT22;35752;52.164;21.244;2022-09-09T04:36:38;12.30;99.90
49855;DHT22;35752;52.164;21.244;2022-09-09T04:39:06;12.30;99.90
49855;DHT22;35752;52.164;21.244;2022-09-09T04:41:31;12.30;99.90
49855;DHT22;35752;52.164;21.244;2022-09-09T04:43:57;12.30;99.90
49855;DHT22;35752;52.164;21.244;2022-09-09T04:46:31;12.30;99.90
49855;DHT22;35752;52.164;21.244;2022-09-09T04:48:59;12.30;99.90
49855;DHT22;35752;52.164;21.244;2022-09-09T04:51:25;12.30;99.90
49855;DHT22;35752;52.164;21.244;2022-09-09T04:53:51;12.30;99.90
49855;DHT22;35752;52.164;21.244;2022-09-09T04:56:19;12.30;99.90
49855;DHT22;35752;52.164;21.244;2022-09-09T04:58:45;12.30;99.90
49855;DHT22;35752;52.164;21.244;2022-09-09T05:01:19;12.30;99.90
49855;DHT22;35752;52.164;21.244;2022-09-09T05:03:49;12.30;99.90
49855;DHT22;35752;52.164;21.244;2022-09-09T05:06:22;12.30;99.90
49855;DHT22;35752;52.164;21.244;2022-09-09T05:08:48;12.30;99.90
49855;DHT22;35752;52.164;21.244;2022-09-09T05:13:44;12.40;99.90
49855;DHT22;35752;52.164;21.244;2022-09-09T05:16:31;12.40;99.90
49855;DHT22;35752;52.164;21.244;2022-09-09T05:19:10;12.40;99.90
49855;DHT22;35752;52.164;21.244;2022-09-09T05:21:37;12.30;99.90
49855;DHT22;35752;52.164;21.244;2022-09-09T05:24:03;12.40;99.90
49855;DHT22;35752;52.164;21.244;2022-09-09T05:26:31;12.40;99.90
49855;DHT22;35752;52.164;21.244;2022-09-09T05:29:00;12.40;99.90
49855;DHT22;35752;52.164;21.244;2022-09-09T05:31:26;12.40;99.90
49855;DHT22;35752;52.164;21.244;2022-09-09T05:34:03;12.50;99.90
49855;DHT22;35752;52.164;21.244;2022-09-09T05:36:32;12.50;99.90
49855;DHT22;35752;52.164;21.244;2022-09-09T05:39:01;12.50;99.90
49855;DHT22;35752;52.164;21.244;2022-09-09T05:41:29;12.50;99.90
49855;DHT22;35752;52.164;21.244;2022-09-09T05:43:59;12.50;99.90
49855;DHT22;35752;52.164;21.244;2022-09-09T05:46:29;12.50;99.90
49855;DHT22;35752;52.164;21.244;2022-09-09T05:48:55;12.50;99.90
49855;DHT22;35752;52.164;21.244;2022-09-09T05:51:23;12.50;99.90
49855;DHT22;35752;52.164;21.244;2022-09-09T05:53:50;12.50;99.90
49855;DHT22;35752;52.164;21.244;2022-09-09T05:56:22;12.50;99.90
49855;DHT22;35752;52.164;21.244;2022-09-09T05:58:49;12.50;99.90
49855;DHT22;35752;52.164;21.244;2022-09-09T06:01:19;12.50;99.90
49855;DHT22;35752;52.164;21.244;2022-09-09T06:03:46;12.50;99.90
49855;DHT22;35752;52.164;21.244;2022-09-09T06:06:21;12.50;99.90
49855;DHT22;35752;52.164;21.244;2022-09-09T06:08:54;12.60;99.90
49855;DHT22;35752;52.164;21.244;2022-09-09T06:11:25;12.60;99.90
49855;DHT22;35752;52.164;21.244;2022-09-09T06:13:52;12.60;99.90
49855;DHT22;35752;52.164;21.244;2022-09-09T06:16:20;12.60;99.90
49855;DHT22;35752;52.164;21.244;2022-09-09T06:18:49;12.60;99.90
49855;DHT22;35752;52.164;21.244;2022-09-09T06:21:24;12.60;99.90
49855;DHT22;35752;52.164;21.244;2022-09-09T06:23:52;12.60;99.90
49855;DHT22;35752;52.164;21.244;2022-09-09T06:26:20;12.70;99.90
49855;DHT22;35752;52.164;21.244;2022-09-09T06:28:47;12.70;99.90
49855;DHT22;35752;52.164;21.244;2022-09-09T06:31:16;12.70;99.90
49855;DHT22;35752;52.164;21.244;2022-09-09T06:33:52;12.70;99.90
49855;DHT22;35752;52.164;21.244;2022-09-09T06:36:19;12.70;99.90
49855;DHT22;35752;52.164;21.244;2022-09-09T06:38:45;12.70;99.90
49855;DHT22;35752;52.164;21.244;2022-09-09T06:41:13;12.70;99.90
49855;DHT22;35752;52.164;21.244;2022-09-09T06:43:39;12.80;99.90
49855;DHT22;35752;52.164;21.244;2022-09-09T06:46:40;12.80;99.90
49855;DHT22;35752;52.164;21.244;2022-09-09T06:49:02;12.80;99.90
49855;DHT22;35752;52.164;21.244;2022-09-09T06:51:30;12.80;99.90
49855;DHT22;35752;52.164;21.244;2022-09-09T06:53:58;12.80;99.90
49855;DHT22;35752;52.164;21.244;2022-09-09T06:56:39;12.80;99.90
49855;DHT22;35752;52.164;21.244;2022-09-09T06:59:08;13.00;99.90
49855;DHT22;35752;52.164;21.244;2022-09-09T07:01:36;12.90;99.90
49855;DHT22;35752;52.164;21.244;2022-09-09T07:04:16;12.90;99.90
49855;DHT22;35752;52.164;21.244;2022-09-09T07:06:44;12.90;99.90
49855;DHT22;35752;52.164;21.244;2022-09-09T07:09:13;12.90;99.90
49855;DHT22;35752;52.164;21.244;2022-09-09T07:11:44;12.90;99.90
49855;DHT22;35752;52.164;21.244;2022-09-09T07:14:11;12.90;99.90
49855;DHT22;35752;52.164;21.244;2022-09-09T07:16:40;12.90;99.90
49855;DHT22;35752;52.164;21.244;2022-09-09T07:19:07;12.90;99.90
49855;DHT22;35752;52.164;21.244;2022-09-09T07:21:36;13.00;99.90
49855;DHT22;35752;52.164;21.244;2022-09-09T07:24:02;13.10;99.90
49855;DHT22;35752;52.164;21.244;2022-09-09T07:26:29;13.10;99.90
49855;DHT22;35752;52.164;21.244;2022-09-09T07:28:56;13.10;99.90
49855;DHT22;35752;52.164;21.244;2022-09-09T07:31:31;13.10;99.90
49855;DHT22;35752;52.164;21.244;2022-09-09T07:34:00;13.00;99.90
49855;DHT22;35752;52.164;21.244;2022-09-09T07:36:31;13.10;99.90
49855;DHT22;35752;52.164;21.244;2022-09-09T07:39:04;13.10;99.90
49855;DHT22;35752;52.164;21.244;2022-09-09T07:41:44;13.10;99.90
49855;DHT22;35752;52.164;21.244;2022-09-09T07:44:17;13.10;99.90
49855;DHT22;35752;52.164;21.244;2022-09-09T07:46:43;13.10;99.90
49855;DHT22;35752;52.164;21.244;2022-09-09T07:49:11;13.10;99.90
49855;DHT22;35752;52.164;21.244;2022-09-09T07:51:45;13.10;99.90
49855;DHT22;35752;52.164;21.244;2022-09-09T07:54:16;13.20;99.90
49855;DHT22;35752;52.164;21.244;2022-09-09T07:56:49;13.30;99.90
49855;DHT22;35752;52.164;21.244;2022-09-09T07:59:16;13.30;99.90
49855;DHT22;35752;52.164;21.244;2022-09-09T08:01:44;13.30;99.90
49855;DHT22;35752;52.164;21.244;2022-09-09T08:04:13;13.30;99.90
49855;DHT22;35752;52.164;21.244;2022-09-09T08:06:55;13.40;99.90
49855;DHT22;35752;52.164;21.244;2022-09-09T08:09:21;13.40;99.90
49855;DHT22;35752;52.164;21.244;2022-09-09T08:11:50;13.50;99.90
49855;DHT22;35752;52.164;21.244;2022-09-09T08:14:16;13.50;99.90
49855;DHT22;35752;52.164;21.244;2022-09-09T08:16:44;13.50;99.90
49855;DHT22;35752;52.164;21.244;2022-09-09T08:19:11;13.60;99.90
49855;DHT22;35752;52.164;21.244;2022-09-09T08:21:40;13.50;99.90
49855;DHT22;35752;52.164;21.244;2022-09-09T08:24:08;13.50;99.90
49855;DHT22;35752;52.164;21.244;2022-09-09T08:26:46;13.50;99.90
49855;DHT22;35752;52.164;21.244;2022-09-09T08:29:14;13.40;99.90
49855;DHT22;35752;52.164;21.244;2022-09-09T08:31:54;13.50;99.90
49855;DHT22;35752;52.164;21.244;2022-09-09T08:34:30;13.50;99.90
49855;DHT22;35752;52.164;21.244;2022-09-09T08:37:06;13.60;99.90
49855;DHT22;35752;52.164;21.244;2022-09-09T08:39:32;13.60;99.90
49855;DHT22;35752;52.164;21.244;2022-09-09T08:44:58;13.70;99.90
49855;DHT22;35752;52.164;21.244;2022-09-09T08:50:37;13.80;99.90
49855;DHT22;35752;52.164;21.244;2022-09-09T08:56:21;13.80;99.90
49855;DHT22;35752;52.164;21.244;2022-09-09T08:58:59;13.80;99.90
49855;DHT22;35752;52.164;21.244;2022-09-09T09:04:58;13.90;99.90
49855;DHT22;35752;52.164;21.244;2022-09-09T09:10:45;13.90;99.90
49855;DHT22;35752;52.164;21.244;2022-09-09T09:17:12;13.80;99.90
49855;DHT22;35752;52.164;21.244;2022-09-09T09:19:46;13.90;99.90
49855;DHT22;35752;52.164;21.244;2022-09-09T09:25:23;13.90;99.90
49855;DHT22;35752;52.164;21.244;2022-09-09T09:28:18;13.90;99.90
49855;DHT22;35752;52.164;21.244;2022-09-09T09:31:13;13.90;99.90
49855;DHT22;35752;52.164;21.244;2022-09-09T09:33:58;13.90;99.90
49855;DHT22;35752;52.164;21.244;2022-09-09T09:36:41;14.00;99.90
49855;DHT22;35752;52.164;21.244;2022-09-09T09:39:28;14.00;99.90
49855;DHT22;35752;52.164;21.244;2022-09-09T09:41:54;14.10;99.90
49855;DHT22;35752;52.164;21.244;2022-09-09T09:44:36;14.10;99.90
49855;DHT22;35752;52.164;21.244;2022-09-09T09:47:31;14.10;99.90
49855;DHT22;35752;52.164;21.244;2022-09-09T09:50:04;14.10;99.90
49855;DHT22;35752;52.164;21.244;2022-09-09T09:56:13;14.00;99.90
49855;DHT22;35752;52.164;21.244;2022-09-09T09:58:51;14.10;99.90
49855;DHT22;35752;52.164;21.244;2022-09-09T10:01:32;14.10;99.90
49855;DHT22;35752;52.164;21.244;2022-09-09T10:04:20;14.10;99.90
49855;DHT22;35752;52.164;21.244;2022-09-09T10:06:49;14.20;99.90
49855;DHT22;35752;52.164;21.244;2022-09-09T10:09:33;14.20;99.90
49855;DHT22;35752;52.164;21.244;2022-09-09T10:20:40;14.40;99.90
49855;DHT22;35752;52.164;21.244;2022-09-09T10:45:48;14.50;99.90
49855;DHT22;35752;52.164;21.244;2022-09-09T10:48:18;14.50;99.90
49855;DHT22;35752;52.164;21.244;2022-09-09T10:50:57;14.50;99.90
49855;DHT22;35752;52.164;21.244;2022-09-09T10:53:42;14.50;99.90
49855;DHT22;35752;52.164;21.244;2022-09-09T11:01:49;14.60;99.90
49855;DHT22;35752;52.164;21.244;2022-09-09T11:04:27;14.60;99.90
49855;DHT22;35752;52.164;21.244;2022-09-09T11:06:57;14.70;99.90
49855;DHT22;35752;52.164;21.244;2022-09-09T11:09:27;14.70;99.90
49855;DHT22;35752;52.164;21.244;2022-09-09T11:11:56;14.60;99.90
49855;DHT22;35752;52.164;21.244;2022-09-09T11:14:38;14.70;99.90
49855;DHT22;35752;52.164;21.244;2022-09-09T11:19:46;14.70;99.90
49855;DHT22;35752;52.164;21.244;2022-09-09T11:22:22;14.70;99.90
49855;DHT22;35752;52.164;21.244;2022-09-09T11:25:17;14.70;99.90
49855;DHT22;35752;52.164;21.244;2022-09-09T11:41:32;14.80;99.90
49855;DHT22;35752;52.164;21.244;2022-09-09T11:44:08;14.80;99.90
49855;DHT22;35752;52.164;21.244;2022-09-09T11:46:36;14.80;99.90
49855;DHT22;35752;52.164;21.244;2022-09-09T11:49:04;14.80;99.90
49855;DHT22;35752;52.164;21.244;2022-09-09T11:51:35;14.80;99.90
49855;DHT22;35752;52.164;21.244;2022-09-09T11:57:03;14.80;99.90
49855;DHT22;35752;52.164;21.244;2022-09-09T11:59:49;14.70;99.90
49855;DHT22;35752;52.164;21.244;2022-09-09T12:02:22;14.70;99.90
49855;DHT22;35752;52.164;21.244;2022-09-09T12:09:52;14.70;99.90
49855;DHT22;35752;52.164;21.244;2022-09-09T12:12:28;14.70;99.90
49855;DHT22;35752;52.164;21.244;2022-09-09T12:15:01;14.60;99.90
49855;DHT22;35752;52.164;21.244;2022-09-09T12:17:29;14.60;99.90
49855;DHT22;35752;52.164;21.244;2022-09-09T12:33:13;14.70;99.90
49855;DHT22;35752;52.164;21.244;2022-09-09T12:35:45;14.70;99.90
49855;DHT22;35752;52.164;21.244;2022-09-09T12:38:16;14.70;99.90
49855;DHT22;35752;52.164;21.244;2022-09-09T12:40:57;14.60;99.90
49855;DHT22;35752;52.164;21.244;2022-09-09T12:43:23;14.60;99.90
49855;DHT22;35752;52.164;21.244;2022-09-09T12:45:50;14.70;99.90
49855;DHT22;35752;52.164;21.244;2022-09-09T12:48:25;14.60;99.90
49855;DHT22;35752;52.164;21.244;2022-09-09T12:50:57;14.60;99.90
49855;DHT22;35752;52.164;21.244;2022-09-09T12:53:36;14.60;99.90
49855;DHT22;35752;52.164;21.244;2022-09-09T12:56:08;14.60;99.90
49855;DHT22;35752;52.164;21.244;2022-09-09T12:58:47;14.50;99.90
49855;DHT22;35752;52.164;21.244;2022-09-09T13:01:29;14.50;99.90
49855;DHT22;35752;52.164;21.244;2022-09-09T13:03:56;14.60;99.90
49855;DHT22;35752;52.164;21.244;2022-09-09T13:06:25;14.60;99.90
49855;DHT22;35752;52.164;21.244;2022-09-09T13:08:52;14.70;99.90
49855;DHT22;35752;52.164;21.244;2022-09-09T13:11:22;14.70;99.90
49855;DHT22;35752;52.164;21.244;2022-09-09T13:13:52;14.80;99.90
49855;DHT22;35752;52.164;21.244;2022-09-09T13:16:20;14.80;99.90
49855;DHT22;35752;52.164;21.244;2022-09-09T13:18:49;14.80;99.90
49855;DHT22;35752;52.164;21.244;2022-09-09T13:21:18;14.90;99.90
49855;DHT22;35752;52.164;21.244;2022-09-09T13:23:48;14.90;99.90
49855;DHT22;35752;52.164;21.244;2022-09-09T13:26:24;14.90;99.90
49855;DHT22;35752;52.164;21.244;2022-09-09T13:28:54;14.90;99.90
49855;DHT22;35752;52.164;21.244;2022-09-09T13:31:27;14.80;99.90
49855;DHT22;35752;52.164;21.244;2022-09-09T13:33:57;14.80;99.90
49855;DHT22;35752;52.164;21.244;2022-09-09T13:36:30;14.90;99.90
49855;DHT22;35752;52.164;21.244;2022-09-09T13:38:56;14.90;99.90
49855;DHT22;35752;52.164;21.244;2022-09-09T13:41:34;14.90;99.90
49855;DHT22;35752;52.164;21.244;2022-09-09T13:44:04;15.00;99.90
49855;DHT22;35752;52.164;21.244;2022-09-09T13:46:33;14.90;99.90
49855;DHT22;35752;52.164;21.244;2022-09-09T13:51:49;14.80;99.90
49855;DHT22;35752;52.164;21.244;2022-09-09T13:54:19;14.80;99.90
49855;DHT22;35752;52.164;21.244;2022-09-09T13:56:45;14.90;99.90
49855;DHT22;35752;52.164;21.244;2022-09-09T13:59:18;14.90;99.90
49855;DHT22;35752;52.164;21.244;2022-09-09T14:01:54;14.90;99.90
49855;DHT22;35752;52.164;21.244;2022-09-09T14:04:20;14.90;99.90
49855;DHT22;35752;52.164;21.244;2022-09-09T14:06:46;14.90;99.90
49855;DHT22;35752;52.164;21.244;2022-09-09T14:09:13;14.90;99.90
49855;DHT22;35752;52.164;21.244;2022-09-09T14:11:39;15.00;99.90
49855;DHT22;35752;52.164;21.244;2022-09-09T14:14:05;15.00;99.90
49855;DHT22;35752;52.164;21.244;2022-09-09T14:16:31;15.00;99.90
49855;DHT22;35752;52.164;21.244;2022-09-09T14:18:59;15.00;99.90
49855;DHT22;35752;52.164;21.244;2022-09-09T14:21:27;15.00;99.90
49855;DHT22;35752;52.164;21.244;2022-09-09T14:23:53;15.00;99.90
49855;DHT22;35752;52.164;21.244;2022-09-09T14:26:19;15.00;99.90
49855;DHT22;35752;52.164;21.244;2022-09-09T14:28:46;15.00;99.90
49855;DHT22;35752;52.164;21.244;2022-09-09T14:31:15;15.00;99.90
49855;DHT22;35752;52.164;21.244;2022-09-09T14:33:43;14.90;99.90
49855;DHT22;35752;52.164;21.244;2022-09-09T14:36:09;14.90;99.90
49855;DHT22;35752;52.164;21.244;2022-09-09T14:38:38;14.80;99.90
49855;DHT22;35752;52.164;21.244;2022-09-09T14:41:19;14.80;99.90
49855;DHT22;35752;52.164;21.244;2022-09-09T14:44:02;14.80;99.90
49855;DHT22;35752;52.164;21.244;2022-09-09T14:46:31;14.70;99.90
49855;DHT22;35752;52.164;21.244;2022-09-09T14:49:01;14.80;99.90
49855;DHT22;35752;52.164;21.244;2022-09-09T14:51:27;14.80;99.90
49855;DHT22;35752;52.164;21.244;2022-09-09T14:53:57;14.80;99.90
49855;DHT22;35752;52.164;21.244;2022-09-09T14:56:24;14.90;99.90
49855;DHT22;35752;52.164;21.244;2022-09-09T14:58:50;14.90;99.90
49855;DHT22;35752;52.164;21.244;2022-09-09T15:01:18;15.00;99.90
49855;DHT22;35752;52.164;21.244;2022-09-09T15:03:48;15.00;99.90
49855;DHT22;35752;52.164;21.244;2022-09-09T15:06:19;15.00;99.90
49855;DHT22;35752;52.164;21.244;2022-09-09T15:08:45;15.10;99.90
49855;DHT22;35752;52.164;21.244;2022-09-09T15:11:15;15.10;99.90
49855;DHT22;35752;52.164;21.244;2022-09-09T15:13:44;15.10;99.90
49855;DHT22;35752;52.164;21.244;2022-09-09T15:16:11;15.00;99.90
49855;DHT22;35752;52.164;21.244;2022-09-09T15:18:37;15.00;99.90
49855;DHT22;35752;52.164;21.244;2022-09-09T15:21:12;15.00;99.90
49855;DHT22;35752;52.164;21.244;2022-09-09T15:23:38;15.00;99.90
49855;DHT22;35752;52.164;21.244;2022-09-09T15:26:04;14.80;99.90
49855;DHT22;35752;52.164;21.244;2022-09-09T15:28:30;14.90;99.90
49855;DHT22;35752;52.164;21.244;2022-09-09T15:31:21;14.80;99.90
49855;DHT22;35752;52.164;21.244;2022-09-09T15:33:51;14.80;99.90
49855;DHT22;35752;52.164;21.244;2022-09-09T15:38:42;14.80;99.90
49855;DHT22;35752;52.164;21.244;2022-09-09T15:41:12;14.80;99.90
49855;DHT22;35752;52.164;21.244;2022-09-09T15:43:38;14.80;99.90
49855;DHT22;35752;52.164;21.244;2022-09-09T15:48:42;14.80;99.90
49855;DHT22;35752;52.164;21.244;2022-09-09T15:51:09;14.70;99.90
49855;DHT22;35752;52.164;21.244;2022-09-09T15:53:36;14.70;99.90
49855;DHT22;35752;52.164;21.244;2022-09-09T15:56:03;14.70;99.90
49855;DHT22;35752;52.164;21.244;2022-09-09T15:58:32;14.70;99.90
49855;DHT22;35752;52.164;21.244;2022-09-09T16:01:05;14.70;99.90
49855;DHT22;35752;52.164;21.244;2022-09-09T16:03:35;14.70;99.90
49855;DHT22;35752;52.164;21.244;2022-09-09T16:06:02;14.70;99.90
49855;DHT22;35752;52.164;21.244;2022-09-09T16:08:37;14.70;99.90
49855;DHT22;35752;52.164;21.244;2022-09-09T16:11:07;14.70;99.90
49855;DHT22;35752;52.164;21.244;2022-09-09T16:13:38;14.70;99.90
49855;DHT22;35752;52.164;21.244;2022-09-09T16:16:08;14.70;99.90
49855;DHT22;35752;52.164;21.244;2022-09-09T16:18:35;14.70;99.90
49855;DHT22;35752;52.164;21.244;2022-09-09T16:21:01;14.60;99.90
49855;DHT22;35752;52.164;21.244;2022-09-09T16:23:26;14.60;99.90
49855;DHT22;35752;52.164;21.244;2022-09-09T16:25:53;14.50;99.90
49855;DHT22;35752;52.164;21.244;2022-09-09T16:28:21;14.40;99.90
49855;DHT22;35752;52.164;21.244;2022-09-09T16:30:47;14.40;99.90
49855;DHT22;35752;52.164;21.244;2022-09-09T16:33:13;14.40;99.90
49855;DHT22;35752;52.164;21.244;2022-09-09T16:35:40;14.40;99.90
49855;DHT22;35752;52.164;21.244;2022-09-09T16:38:05;14.40;99.90
49855;DHT22;35752;52.164;21.244;2022-09-09T16:40:37;14.40;99.90
49855;DHT22;35752;52.164;21.244;2022-09-09T16:43:03;14.40;99.90
49855;DHT22;35752;52.164;21.244;2022-09-09T16:45:28;14.40;99.90
49855;DHT22;35752;52.164;21.244;2022-09-09T16:47:55;14.40;99.90
49855;DHT22;35752;52.164;21.244;2022-09-09T16:50:20;14.40;99.90
49855;DHT22;35752;52.164;21.244;2022-09-09T16:52:46;14.50;99.90
49855;DHT22;35752;52.164;21.244;2022-09-09T16:55:12;14.40;99.90
49855;DHT22;35752;52.164;21.244;2022-09-09T16:57:37;14.50;99.90
49855;DHT22;35752;52.164;21.244;2022-09-09T17:00:03;14.40;99.90
49855;DHT22;35752;52.164;21.244;2022-09-09T17:02:34;14.40;99.90
49855;DHT22;35752;52.164;21.244;2022-09-09T17:05:02;14.30;99.90
49855;DHT22;35752;52.164;21.244;2022-09-09T17:07:28;14.30;99.90
49855;DHT22;35752;52.164;21.244;2022-09-09T17:09:54;14.30;99.90
49855;DHT22;35752;52.164;21.244;2022-09-09T17:12:19;14.20;99.90
49855;DHT22;35752;52.164;21.244;2022-09-09T17:14:45;14.20;99.90
49855;DHT22;35752;52.164;21.244;2022-09-09T17:17:11;14.20;99.90
49855;DHT22;35752;52.164;21.244;2022-09-09T17:19:36;14.20;99.90
49855;DHT22;35752;52.164;21.244;2022-09-09T17:22:02;14.20;99.90
49855;DHT22;35752;52.164;21.244;2022-09-09T17:24:28;14.20;99.90
49855;DHT22;35752;52.164;21.244;2022-09-09T17:26:54;14.20;99.90
49855;DHT22;35752;52.164;21.244;2022-09-09T17:29:20;14.20;99.90
49855;DHT22;35752;52.164;21.244;2022-09-09T17:31:46;14.20;99.90
49855;DHT22;35752;52.164;21.244;2022-09-09T17:34:12;14.20;99.90
49855;DHT22;35752;52.164;21.244;2022-09-09T17:36:38;14.20;99.90
49855;DHT22;35752;52.164;21.244;2022-09-09T17:39:04;14.20;99.90
49855;DHT22;35752;52.164;21.244;2022-09-09T17:41:31;14.20;99.90
49855;DHT22;35752;52.164;21.244;2022-09-09T17:43:57;14.20;99.90
49855;DHT22;35752;52.164;21.244;2022-09-09T17:46:26;14.20;99.90
49855;DHT22;35752;52.164;21.244;2022-09-09T17:48:59;14.20;99.90
49855;DHT22;35752;52.164;21.244;2022-09-09T17:51:26;14.10;99.90
49855;DHT22;35752;52.164;21.244;2022-09-09T17:54:05;14.10;99.90
49855;DHT22;35752;52.164;21.244;2022-09-09T17:56:32;14.10;99.90
49855;DHT22;35752;52.164;21.244;2022-09-09T17:59:00;14.10;99.90
49855;DHT22;35752;52.164;21.244;2022-09-09T18:01:27;14.10;99.90
49855;DHT22;35752;52.164;21.244;2022-09-09T18:03:56;14.10;99.90
49855;DHT22;35752;52.164;21.244;2022-09-09T18:06:24;14.10;99.90
49855;DHT22;35752;52.164;21.244;2022-09-09T18:08:56;14.10;99.90
49855;DHT22;35752;52.164;21.244;2022-09-09T18:11:23;14.10;99.90
49855;DHT22;35752;52.164;21.244;2022-09-09T18:13:50;14.00;99.90
49855;DHT22;35752;52.164;21.244;2022-09-09T18:16:16;14.00;99.90
49855;DHT22;35752;52.164;21.244;2022-09-09T18:18:49;13.90;99.90
49855;DHT22;35752;52.164;21.244;2022-09-09T18:21:15;13.90;99.90
49855;DHT22;35752;52.164;21.244;2022-09-09T18:23:45;13.90;99.90
49855;DHT22;35752;52.164;21.244;2022-09-09T18:26:15;13.90;99.90
49855;DHT22;35752;52.164;21.244;2022-09-09T18:28:41;13.90;99.90